Time;durP1;ratioP1;P1;durP2;ratioP2;P2;SDS_P1;SDS_P2;PMS_P1;PMS_P2;Temp;Humidity;BMP_temperature;BMP_pressure;BME280_temperature;BME280_humidity;BME280_pressure;Samples;Min_cycle;Max_cycle;Signal;HPM_P1;HPM_P2
2022/09/13 00:00:56;;;;;;;43.53;26.63;;;;;;;;;;5152114;27;20051;-63
2022/09/13 00:03:23;;;;;;;44.33;29.00;;;;;;;;;;5150879;27;20441;-63
2022/09/13 00:05:49;;;;;;;45.28;29.77;;;;;;;;;;5151485;27;20462;-63
2022/09/13 00:08:16;;;;;;;42.72;28.90;;;;;;;;;;5152892;27;20139;-63
2022/09/13 00:10:42;;;;;;;44.05;28.40;;;;;;;;;;5132473;27;20046;-63
2022/09/13 00:13:09;;;;;;;42.70;29.38;;;;;;;;;;5150000;27;20145;-62
2022/09/13 00:15:36;;;;;;;45.83;28.60;;;;;;;;;;5151447;27;20058;-62
2022/09/13 00:18:02;;;;;;;47.47;30.60;;;;;;;;;;5152361;27;20054;-63
2022/09/13 00:20:28;;;;;;;;;;;;;;;;;;5150891;27;20039;-63
2022/09/13 00:22:54;;;;;;;45.45;30.25;;;;;;;;;;5152170;27;19940;-63
2022/09/13 00:25:20;;;;;;;48.53;30.88;;;;;;;;;;5151480;27;20144;-62
2022/09/13 00:27:46;;;;;;;;;;;;;;;;;;5152507;27;20141;-64
2022/09/13 00:30:12;;;;;;;45.05;27.95;;;;;;;;;;5150041;27;19930;-64
2022/09/13 00:32:39;;;;;;;37.72;25.55;;;;;;;;;;5133051;27;20047;-64
2022/09/13 00:35:06;;;;;;;42.20;25.80;;;;;;;;;;5151564;27;20050;-64
2022/09/13 00:37:33;;;;;;;34.28;23.98;;;;;;;;;;5132895;27;20350;-65
2022/09/13 00:39:59;;;;;;;37.25;23.80;;;;;;;;;;5150421;27;20111;-64
2022/09/13 00:42:31;;;;;;;40.15;25.50;;;;;;;;;;5152110;27;20054;-64
2022/09/13 00:45:06;;;;;;;41.70;26.40;;;;;;;;;;5151220;27;20123;-63
2022/09/13 00:47:34;;;;;;;37.47;24.05;;;;;;;;;;5152170;27;20046;-64
2022/09/13 00:50:06;;;;;;;41.92;25.92;;;;;;;;;;5150677;27;20039;-64
2022/09/13 00:52:34;;;;;;;38.70;26.40;;;;;;;;;;5150824;27;20055;-63
2022/09/13 00:55:01;;;;;;;43.90;26.55;;;;;;;;;;5149643;27;20058;-63
2022/09/13 00:57:32;;;;;;;46.80;27.35;;;;;;;;;;5130989;27;20108;-64
2022/09/13 01:00:18;;;;;;;44.50;27.30;;;;;;;;;;5130718;27;20050;-63
2022/09/13 01:02:47;;;;;;;49.38;30.58;;;;;;;;;;5145355;27;20065;-63
2022/09/13 01:05:14;;;;;;;51.13;31.08;;;;;;;;;;5128964;27;20123;-63
2022/09/13 01:07:40;;;;;;;52.78;32.00;;;;;;;;;;5151095;27;20431;-62
2022/09/13 01:10:07;;;;;;;47.05;29.25;;;;;;;;;;5151728;27;20038;-63
2022/09/13 01:12:47;;;;;;;47.72;31.55;;;;;;;;;;5148845;27;20043;-62
2022/09/13 01:15:13;;;;;;;49.78;31.50;;;;;;;;;;5150690;27;20038;-63
2022/09/13 01:17:39;;;;;;;;;;;;;;;;;;5150692;27;20099;-62
2022/09/13 01:20:07;;;;;;;46.83;29.50;;;;;;;;;;5150505;27;19919;-63
2022/09/13 01:22:43;;;;;;;45.88;30.35;;;;;;;;;;5150829;27;20117;-63
2022/09/13 01:25:15;;;;;;;45.60;29.48;;;;;;;;;;5150332;27;20096;-62
2022/09/13 01:27:59;;;;;;;47.35;29.48;;;;;;;;;;5149693;27;20137;-62
2022/09/13 01:30:28;;;;;;;44.75;27.92;;;;;;;;;;5130938;27;20047;-63
2022/09/13 01:33:13;;;;;;;42.53;26.80;;;;;;;;;;5131437;27;20047;-63
2022/09/13 01:35:47;;;;;;;43.63;27.15;;;;;;;;;;5149966;27;20042;-63
2022/09/13 01:38:26;;;;;;;36.92;24.95;;;;;;;;;;5130572;27;20047;-63
2022/09/13 01:41:04;;;;;;;38.97;24.20;;;;;;;;;;5136979;27;20053;-63
2022/09/13 01:43:45;;;;;;;39.70;23.85;;;;;;;;;;5150380;27;20489;-64
2022/09/13 01:46:18;;;;;;;35.83;23.45;;;;;;;;;;5132786;27;20138;-63
2022/09/13 01:48:56;;;;;;;32.03;21.70;;;;;;;;;;5131868;27;20042;-63
2022/09/13 01:51:28;;;;;;;33.08;21.55;;;;;;;;;;5148171;27;20099;-63
2022/09/13 01:54:02;;;;;;;31.92;21.38;;;;;;;;;;5131651;27;20043;-65
2022/09/13 01:56:31;;;;;;;;;;;;;;;;;;5134092;27;20485;-65
2022/09/13 01:59:02;;;;;;;31.48;21.45;;;;;;;;;;5149592;27;19923;-65
2022/09/13 02:01:33;;;;;;;31.25;21.10;;;;;;;;;;5148518;27;20117;-65
2022/09/13 02:04:12;;;;;;;29.00;19.92;;;;;;;;;;5150073;27;20119;-65
2022/09/13 02:06:48;;;;;;;31.90;20.23;;;;;;;;;;5149914;27;20039;-65
2022/09/13 02:09:16;;;;;;;32.78;20.88;;;;;;;;;;5149836;27;20066;-65
2022/09/13 02:11:44;;;;;;;32.97;20.92;;;;;;;;;;5130188;27;20055;-65
2022/09/13 02:14:14;;;;;;;31.98;20.55;;;;;;;;;;5150824;27;20058;-65
2022/09/13 02:16:43;;;;;;;30.90;20.70;;;;;;;;;;5149821;27;20053;-65
2022/09/13 02:19:21;;;;;;;33.50;21.80;;;;;;;;;;5114516;27;20046;-65
2022/09/13 02:21:52;;;;;;;31.30;21.20;;;;;;;;;;5143737;27;20129;-66
2022/09/13 02:24:21;;;;;;;33.60;21.33;;;;;;;;;;5150642;27;20173;-66
2022/09/13 02:26:51;;;;;;;31.52;20.80;;;;;;;;;;5149235;27;20054;-66
2022/09/13 02:29:19;;;;;;;32.38;21.10;;;;;;;;;;5150653;27;20443;-65
2022/09/13 02:31:48;;;;;;;36.88;22.42;;;;;;;;;;5148362;27;20047;-66
2022/09/13 02:34:20;;;;;;;32.58;20.17;;;;;;;;;;5150304;27;20473;-66
2022/09/13 02:36:47;;;;;;;32.13;21.40;;;;;;;;;;5153290;27;20050;-65
2022/09/13 02:39:16;;;;;;;34.20;21.35;;;;;;;;;;5157102;27;20054;-66
2022/09/13 02:42:00;;;;;;;32.35;21.35;;;;;;;;;;5123158;27;20575;-66
2022/09/13 02:44:30;;;;;;;36.22;21.40;;;;;;;;;;5151797;27;20062;-66
2022/09/13 02:47:15;;;;;;;32.67;21.02;;;;;;;;;;5155677;27;20129;-66
2022/09/13 02:49:44;;;;;;;35.10;22.17;;;;;;;;;;5138610;27;20102;-66
2022/09/13 02:52:30;;;;;;;34.45;22.05;;;;;;;;;;5155983;27;20065;-66
2022/09/13 02:55:00;;;;;;;35.72;22.73;;;;;;;;;;5155898;27;20141;-66
2022/09/13 02:57:32;;;;;;;36.08;21.40;;;;;;;;;;5156397;27;20454;-67
2022/09/13 02:59:58;;;;;;;32.22;21.30;;;;;;;;;;5156945;27;20064;-66
2022/09/13 03:02:26;;;;;;;35.17;22.20;;;;;;;;;;5156069;27;20378;-65
2022/09/13 03:04:53;;;;;;;32.55;20.77;;;;;;;;;;5155537;27;20134;-67
2022/09/13 03:07:18;;;;;;;;;;;;;;;;;;5156233;27;20039;-66
2022/09/13 03:10:05;;;;;;;28.83;17.33;;;;;;;;;;5156909;27;19972;-65
2022/09/13 03:12:50;;;;;;;29.25;17.45;;;;;;;;;;5155527;27;20062;-64
2022/09/13 03:15:41;;;;;;;22.02;13.63;;;;;;;;;;5155932;27;20042;-63
2022/09/13 03:18:33;;;;;;;20.20;11.05;;;;;;;;;;5156162;27;20121;-64
2022/09/13 03:21:23;;;;;;;19.48;10.35;;;;;;;;;;5156801;27;20126;-63
2022/09/13 03:23:52;;;;;;;17.90;9.33;;;;;;;;;;5112884;27;20539;-64
2022/09/13 03:26:25;;;;;;;15.38;6.70;;;;;;;;;;5155664;27;20050;-64
2022/09/13 03:29:06;;;;;;;14.55;6.30;;;;;;;;;;5155883;27;20049;-63
2022/09/13 03:31:39;;;;;;;13.48;5.72;;;;;;;;;;5137722;27;20089;-64
2022/09/13 03:34:08;;;;;;;14.98;4.68;;;;;;;;;;5153637;27;20212;-64
2022/09/13 03:36:37;;;;;;;10.85;4.05;;;;;;;;;;5135327;27;20451;-64
2022/09/13 03:39:03;;;;;;;11.30;3.78;;;;;;;;;;5135596;27;20047;-64
2022/09/13 03:41:35;;;;;;;10.82;3.60;;;;;;;;;;5156611;27;20144;-63
2022/09/13 03:44:03;;;;;;;10.82;3.53;;;;;;;;;;5154259;27;20554;-64
2022/09/13 03:46:31;;;;;;;9.52;3.70;;;;;;;;;;5134886;27;20058;-64
2022/09/13 03:49:00;;;;;;;10.30;3.13;;;;;;;;;;5150125;27;20042;-64
2022/09/13 03:51:26;;;;;;;9.65;3.30;;;;;;;;;;5152954;27;20354;-64
2022/09/13 03:53:56;;;;;;;11.85;3.10;;;;;;;;;;5125176;27;20058;-64
2022/09/13 03:56:22;;;;;;;12.52;3.50;;;;;;;;;;5133541;27;20062;-64
2022/09/13 03:58:48;;;;;;;8.85;2.80;;;;;;;;;;5151228;27;20153;-63
2022/09/13 04:01:18;;;;;;;9.90;3.35;;;;;;;;;;5152876;27;20046;-63
2022/09/13 04:03:44;;;;;;;10.43;3.08;;;;;;;;;;5133410;27;20034;-64
2022/09/13 04:06:10;;;;;;;9.02;2.85;;;;;;;;;;5152681;27;20102;-64
2022/09/13 04:08:36;;;;;;;16.50;6.97;;;;;;;;;;5151291;27;20038;-64
2022/09/13 04:11:02;;;;;;;13.57;7.05;;;;;;;;;;5152415;27;20378;-64
2022/09/13 04:13:28;;;;;;;12.40;6.85;;;;;;;;;;5132541;27;20035;-64
2022/09/13 04:15:54;;;;;;;11.48;6.30;;;;;;;;;;5153064;27;20103;-64
2022/09/13 04:18:20;;;;;;;13.68;6.43;;;;;;;;;;5151513;27;20042;-64
2022/09/13 04:20:54;;;;;;;14.45;7.55;;;;;;;;;;5152196;27;20053;-64
2022/09/13 04:23:20;;;;;;;13.45;7.63;;;;;;;;;;5152401;27;20114;-65
2022/09/13 04:25:46;;;;;;;15.05;7.47;;;;;;;;;;5151718;27;20043;-64
2022/09/13 04:28:12;;;;;;;15.57;8.00;;;;;;;;;;5151128;27;20207;-64
2022/09/13 04:30:38;;;;;;;13.20;7.00;;;;;;;;;;5150201;27;20047;-64
2022/09/13 04:33:04;;;;;;;16.48;7.70;;;;;;;;;;5152264;27;20347;-64
2022/09/13 04:35:30;;;;;;;15.50;6.05;;;;;;;;;;5151527;27;20066;-64
2022/09/13 04:37:59;;;;;;;11.95;4.55;;;;;;;;;;5152384;27;20054;-64
2022/09/13 04:40:25;;;;;;;12.23;4.35;;;;;;;;;;5149920;27;20121;-64
2022/09/13 04:42:51;;;;;;;;;;;;;;;;;;5152943;27;20182;-64
2022/09/13 04:45:17;;;;;;;13.18;4.60;;;;;;;;;;5150710;27;20328;-64
2022/09/13 04:47:43;;;;;;;10.55;4.80;;;;;;;;;;5133779;27;20143;-64
2022/09/13 04:50:09;;;;;;;13.32;5.00;;;;;;;;;;5149707;27;20042;-64
2022/09/13 04:52:35;;;;;;;;;;;;;;;;;;5152582;27;20392;-64
2022/09/13 04:55:01;;;;;;;14.98;4.80;;;;;;;;;;5143177;27;19919;-64
2022/09/13 04:57:28;;;;;;;12.90;5.10;;;;;;;;;;5129620;27;20039;-64
2022/09/13 04:59:54;;;;;;;12.52;5.00;;;;;;;;;;5145418;27;20435;-64
2022/09/13 05:02:20;;;;;;;12.40;4.88;;;;;;;;;;5130564;27;20146;-64
2022/09/13 05:04:46;;;;;;;14.38;4.95;;;;;;;;;;5136651;27;20034;-64
2022/09/13 05:07:12;;;;;;;12.27;5.30;;;;;;;;;;5140616;27;20123;-64
2022/09/13 05:09:38;;;;;;;;;;;;;;;;;;5140825;27;20505;-64
2022/09/13 05:12:07;;;;;;;12.95;6.03;;;;;;;;;;5149371;27;19919;-64
2022/09/13 05:14:34;;;;;;;15.95;8.68;;;;;;;;;;5147438;27;20381;-64
2022/09/13 05:17:00;;;;;;;18.73;9.52;;;;;;;;;;5123096;27;20119;-64
2022/09/13 05:19:26;;;;;;;;;;;;;;;;;;5147057;27;20082;-64
2022/09/13 05:21:52;;;;;;;14.32;6.57;;;;;;;;;;5146315;27;20023;-64
2022/09/13 05:24:18;;;;;;;13.32;5.35;;;;;;;;;;5131369;27;20046;-64
2022/09/13 05:26:44;;;;;;;;;;;;;;;;;;5149647;27;20054;-63
2022/09/13 05:29:10;;;;;;;16.38;5.53;;;;;;;;;;5142302;27;20006;-64
2022/09/13 05:31:38;;;;;;;11.85;5.13;;;;;;;;;;5146776;27;20046;-63
2022/09/13 05:34:06;;;;;;;15.02;5.60;;;;;;;;;;5126585;27;20069;-63
2022/09/13 05:36:32;;;;;;;16.20;5.43;;;;;;;;;;5144059;27;20076;-64
2022/09/13 05:38:59;;;;;;;16.92;5.35;;;;;;;;;;5145769;27;20104;-63
2022/09/13 05:41:25;;;;;;;16.83;5.18;;;;;;;;;;5128863;27;20123;-63
2022/09/13 05:43:51;;;;;;;15.65;5.03;;;;;;;;;;5139242;27;20068;-64
2022/09/13 05:46:18;;;;;;;;;;;;;;;;;;5143609;27;20039;-64
2022/09/13 05:48:44;;;;;;;14.38;5.45;;;;;;;;;;5139991;27;19926;-63
2022/09/13 05:51:12;;;;;;;19.33;5.93;;;;;;;;;;5131673;27;20304;-64
2022/09/13 05:53:38;;;;;;;13.70;5.25;;;;;;;;;;5136546;27;20046;-63
2022/09/13 05:56:07;;;;;;;16.73;4.70;;;;;;;;;;5122112;27;20134;-64
2022/09/13 05:58:34;;;;;;;16.23;5.18;;;;;;;;;;5146471;27;20441;-63
2022/09/13 06:01:00;;;;;;;16.00;4.82;;;;;;;;;;5142543;27;20049;-64
2022/09/13 06:03:26;;;;;;;16.55;5.07;;;;;;;;;;5144933;27;20035;-63
2022/09/13 06:05:56;;;;;;;15.32;5.13;;;;;;;;;;5145947;27;20074;-64
2022/09/13 06:08:25;;;;;;;15.90;5.03;;;;;;;;;;5143127;27;20074;-63
2022/09/13 06:11:04;;;;;;;18.20;4.88;;;;;;;;;;5135678;27;20447;-63
2022/09/13 06:13:30;;;;;;;14.70;4.80;;;;;;;;;;5116686;27;20360;-64
2022/09/13 06:15:57;;;;;;;17.50;4.97;;;;;;;;;;5115978;27;20051;-64
2022/09/13 06:18:24;;;;;;;16.25;4.82;;;;;;;;;;5134154;27;20038;-64
2022/09/13 06:20:50;;;;;;;18.77;5.43;;;;;;;;;;5136178;27;20122;-64
2022/09/13 06:23:16;;;;;;;;;;;;;;;;;;5139185;27;20042;-64
2022/09/13 06:25:42;;;;;;;15.93;4.68;;;;;;;;;;5137342;27;20297;-64
2022/09/13 06:28:09;;;;;;;14.73;4.60;;;;;;;;;;5137770;27;20034;-64
2022/09/13 06:30:35;;;;;;;18.08;4.60;;;;;;;;;;5135554;27;20059;-64
2022/09/13 06:33:01;;;;;;;18.38;4.65;;;;;;;;;;5114214;27;20118;-64
2022/09/13 06:35:27;;;;;;;15.60;4.90;;;;;;;;;;5133751;27;20098;-63
2022/09/13 06:37:57;;;;;;;15.10;4.85;;;;;;;;;;5118028;27;20039;-64
2022/09/13 06:40:24;;;;;;;13.52;4.47;;;;;;;;;;5136681;27;20043;-63
2022/09/13 06:42:50;;;;;;;16.33;4.65;;;;;;;;;;5132799;27;20134;-64
2022/09/13 06:45:17;;;;;;;17.60;4.60;;;;;;;;;;5137523;27;20480;-63
2022/09/13 06:47:43;;;;;;;13.43;4.82;;;;;;;;;;5136383;27;20062;-63
2022/09/13 06:50:09;;;;;;;15.45;3.80;;;;;;;;;;5118350;28;20122;-64
2022/09/13 06:52:36;;;;;;;15.18;3.88;;;;;;;;;;5121035;27;20051;-63
2022/09/13 06:55:05;;;;;;;16.27;4.50;;;;;;;;;;5137697;27;20111;-64
2022/09/13 06:57:31;;;;;;;;;;;;;;;;;;5111548;28;20094;-63
2022/09/13 06:59:57;;;;;;;16.63;4.57;;;;;;;;;;5140706;27;20007;-63
2022/09/13 07:02:24;;;;;;;16.75;4.40;;;;;;;;;;5140049;27;20035;-64
2022/09/13 07:04:50;;;;;;;11.68;4.30;;;;;;;;;;5121397;28;20047;-64
2022/09/13 07:07:17;;;;;;;16.75;4.18;;;;;;;;;;5137933;27;20095;-64
2022/09/13 07:09:43;;;;;;;15.50;4.00;;;;;;;;;;5122212;27;20068;-65
2022/09/13 07:12:09;;;;;;;13.52;3.75;;;;;;;;;;5137138;27;20157;-65
2022/09/13 07:14:35;;;;;;;14.57;3.80;;;;;;;;;;5140875;27;20070;-65
2022/09/13 07:17:01;;;;;;;16.48;4.13;;;;;;;;;;5140578;27;20043;-65
2022/09/13 07:19:28;;;;;;;14.18;3.10;;;;;;;;;;5133252;27;20043;-65
2022/09/13 07:21:54;;;;;;;;;;;;;;;;;;5144663;27;20047;-66
2022/09/13 07:24:21;;;;;;;11.85;2.47;;;;;;;;;;5139503;27;19968;-66
2022/09/13 07:26:49;;;;;;;15.63;2.67;;;;;;;;;;5125755;27;20173;-66
2022/09/13 07:29:17;;;;;;;10.60;2.70;;;;;;;;;;5135256;27;20470;-66
2022/09/13 07:31:45;;;;;;;11.10;2.45;;;;;;;;;;5138923;27;20054;-66
2022/09/13 07:34:16;;;;;;;11.93;2.30;;;;;;;;;;5144066;27;20173;-67
2022/09/13 07:36:43;;;;;;;11.55;2.47;;;;;;;;;;5146978;27;20046;-66
2022/09/13 07:39:09;;;;;;;9.63;2.60;;;;;;;;;;5133547;27;20241;-66
2022/09/13 07:41:36;;;;;;;9.10;2.40;;;;;;;;;;5147702;27;20113;-67
2022/09/13 07:44:03;;;;;;;;;;;;;;;;;;5148558;27;20115;-67
2022/09/13 07:46:32;;;;;;;10.82;2.03;;;;;;;;;;5144574;27;19976;-67
2022/09/13 07:48:59;;;;;;;10.93;2.70;;;;;;;;;;5141858;27;20034;-67
2022/09/13 07:51:27;;;;;;;13.20;2.60;;;;;;;;;;5151178;27;20065;-67
2022/09/13 07:54:00;;;;;;;8.38;2.10;;;;;;;;;;5149991;27;20034;-67
2022/09/13 07:56:28;;;;;;;10.95;2.25;;;;;;;;;;5141102;27;20433;-67
2022/09/13 07:58:54;;;;;;;9.23;2.38;;;;;;;;;;5147924;27;20051;-68
2022/09/13 08:01:21;;;;;;;13.27;2.47;;;;;;;;;;5151260;27;20083;-68
2022/09/13 08:03:53;;;;;;;12.95;2.10;;;;;;;;;;5150494;27;20122;-67
2022/09/13 08:06:19;;;;;;;13.52;2.78;;;;;;;;;;5150387;27;20072;-68
2022/09/13 08:08:45;;;;;;;;;;;;;;;;;;5150976;27;20068;-68
2022/09/13 08:11:14;;;;;;;11.80;2.65;;;;;;;;;;5151115;27;19930;-70
2022/09/13 08:13:40;;;;;;;12.80;2.45;;;;;;;;;;5149377;27;20474;-69
2022/09/13 08:16:06;;;;;;;14.82;2.53;;;;;;;;;;5130934;27;20069;-69
2022/09/13 08:18:32;;;;;;;;;;;;;;;;;;5136534;27;20042;-68
2022/09/13 08:20:59;;;;;;;16.67;3.10;;;;;;;;;;5149505;27;20319;-68
2022/09/13 08:23:25;;;;;;;15.98;2.78;;;;;;;;;;5132280;27;20465;-69
2022/09/13 08:25:52;;;;;;;11.82;2.40;;;;;;;;;;5150644;27;20046;-69
2022/09/13 08:28:20;;;;;;;13.68;2.30;;;;;;;;;;5130470;27;20047;-69
2022/09/13 08:30:47;;;;;;;10.20;2.25;;;;;;;;;;5136983;27;20066;-69
2022/09/13 08:33:14;;;;;;;12.10;2.10;;;;;;;;;;5150341;27;20110;-69
2022/09/13 08:35:40;;;;;;;;;;;;;;;;;;5150400;27;20050;-68
2022/09/13 08:38:07;;;;;;;11.85;2.50;;;;;;;;;;5151095;27;19919;-69
2022/09/13 08:40:45;;;;;;;16.60;2.20;;;;;;;;;;5150440;27;20053;-68
2022/09/13 08:43:11;;;;;;;8.90;1.83;;;;;;;;;;5152265;27;20042;-69
2022/09/13 08:45:37;;;;;;;14.35;2.40;;;;;;;;;;5150627;27;20046;-71
2022/09/13 08:48:05;;;;;;;15.05;2.15;;;;;;;;;;5150523;27;20133;-69
2022/09/13 08:50:37;;;;;;;12.20;2.50;;;;;;;;;;5150212;27;20049;-70
2022/09/13 08:53:03;;;;;;;12.57;2.45;;;;;;;;;;5150267;27;20039;-70
2022/09/13 08:55:30;;;;;;;;;;;;;;;;;;5133935;27;20098;-69
2022/09/13 08:58:02;;;;;;;17.33;2.80;;;;;;;;;;5151544;27;20076;-69
2022/09/13 09:00:33;;;;;;;18.10;2.85;;;;;;;;;;5120317;27;20347;-69
2022/09/13 09:02:59;;;;;;;13.13;2.40;;;;;;;;;;5151992;27;20407;-73
2022/09/13 09:05:27;;;;;;;16.45;2.67;;;;;;;;;;5150190;27;20061;-71
2022/09/13 09:07:59;;;;;;;9.80;1.95;;;;;;;;;;5151143;27;20070;-72
2022/09/13 09:10:28;;;;;;;13.75;2.35;;;;;;;;;;5149557;27;20122;-73
2022/09/13 09:12:59;;;;;;;12.93;2.53;;;;;;;;;;5149841;27;20039;-71
2022/09/13 09:15:45;;;;;;;11.10;2.10;;;;;;;;;;5150383;27;20443;-72
2022/09/13 09:18:23;;;;;;;8.57;2.10;;;;;;;;;;5132634;27;20150;-72
2022/09/13 09:20:53;;;;;;;13.73;2.53;;;;;;;;;;5149042;27;20070;-74
2022/09/13 09:23:31;;;;;;;12.23;2.40;;;;;;;;;;5150391;27;20046;-71
2022/09/13 09:26:05;;;;;;;11.18;2.20;;;;;;;;;;5130618;27;20078;-74
2022/09/13 09:28:31;;;;;;;9.45;2.10;;;;;;;;;;5149917;27;20143;-76
2022/09/13 09:31:03;;;;;;;10.18;2.40;;;;;;;;;;5130299;27;20119;-74
2022/09/13 09:33:29;;;;;;;18.75;2.42;;;;;;;;;;5149634;27;20087;-74
2022/09/13 09:36:11;;;;;;;9.10;1.80;;;;;;;;;;5129165;27;20128;-71
2022/09/13 09:38:41;;;;;;;12.68;2.25;;;;;;;;;;5150060;27;20077;-70
2022/09/13 09:41:26;;;;;;;16.05;2.53;;;;;;;;;;5149530;27;20046;-74
2022/09/13 09:43:52;;;;;;;10.60;2.10;;;;;;;;;;5147597;27;20458;-73
2022/09/13 09:46:21;;;;;;;13.45;2.40;;;;;;;;;;5130598;27;20091;-76
2022/09/13 09:48:55;;;;;;;12.57;2.03;;;;;;;;;;5147787;27;20045;-74
2022/09/13 09:51:22;;;;;;;13.10;2.30;;;;;;;;;;5149600;27;20042;-73
2022/09/13 09:53:52;;;;;;;13.48;2.50;;;;;;;;;;5148554;27;20115;-70
2022/09/13 09:56:18;;;;;;;8.82;1.90;;;;;;;;;;5147380;27;20217;-70
2022/09/13 09:58:45;;;;;;;;;;;;;;;;;;5147492;27;20453;-74
2022/09/13 10:01:20;;;;;;;16.05;2.72;;;;;;;;;;5128956;27;19919;-71
2022/09/13 10:03:50;;;;;;;12.13;2.30;;;;;;;;;;5148483;27;20184;-76
2022/09/13 10:06:21;;;;;;;12.15;2.22;;;;;;;;;;5131412;27;20492;-69
2022/09/13 10:08:54;;;;;;;10.98;2.30;;;;;;;;;;5148255;27;20044;-73
2022/09/13 10:11:21;;;;;;;17.05;2.42;;;;;;;;;;5148831;27;20050;-71
2022/09/13 10:13:58;;;;;;;14.63;2.35;;;;;;;;;;5147800;27;20039;-69
2022/09/13 10:16:26;;;;;;;11.55;2.30;;;;;;;;;;5129353;27;20126;-70
2022/09/13 10:18:53;;;;;;;13.88;2.30;;;;;;;;;;5142637;27;20121;-72
2022/09/13 10:21:19;;;;;;;13.85;2.15;;;;;;;;;;5128729;27;20047;-74
2022/09/13 10:23:49;;;;;;;10.23;2.05;;;;;;;;;;5128687;27;20478;-73
2022/09/13 10:26:23;;;;;;;8.50;1.88;;;;;;;;;;5128864;27;20256;-74
2022/09/13 10:29:02;;;;;;;10.88;2.47;;;;;;;;;;5128268;27;20074;-73
2022/09/13 10:31:34;;;;;;;15.32;2.08;;;;;;;;;;5146956;27;20176;-71
2022/09/13 10:34:02;;;;;;;9.02;1.90;;;;;;;;;;5148564;27;20126;-72
2022/09/13 10:36:37;;;;;;;11.30;2.20;;;;;;;;;;5149885;27;20057;-69
2022/09/13 10:39:04;;;;;;;8.70;1.90;;;;;;;;;;5108024;27;20093;-71
2022/09/13 10:41:37;;;;;;;6.75;1.70;;;;;;;;;;5148845;27;20049;-80
2022/09/13 10:44:05;;;;;;;9.10;2.08;;;;;;;;;;5148812;27;20121;-71
2022/09/13 10:46:37;;;;;;;9.55;2.25;;;;;;;;;;5131356;27;20125;-71
2022/09/13 10:49:03;;;;;;;12.75;2.60;;;;;;;;;;5147289;27;20051;-73
2022/09/13 10:51:29;;;;;;;;;;;;;;;;;;5149350;27;20351;-74
2022/09/13 10:54:17;;;;;;;11.18;2.30;;;;;;;;;;5150732;27;19945;-74
2022/09/13 10:56:44;;;;;;;12.95;2.33;;;;;;;;;;5148769;27;20046;-71
2022/09/13 10:59:29;;;;;;;11.30;1.70;;;;;;;;;;5152722;27;20443;-74
2022/09/13 11:02:04;;;;;;;8.85;2.13;;;;;;;;;;5134994;27;20359;-73
2022/09/13 11:04:49;;;;;;;12.52;2.60;;;;;;;;;;5133422;27;20118;-71
2022/09/13 11:07:18;;;;;;;10.32;1.80;;;;;;;;;;5153751;27;20050;-79
2022/09/13 11:09:56;;;;;;;8.52;1.80;;;;;;;;;;5152070;27;20502;-73
2022/09/13 11:12:37;;;;;;;9.13;2.15;;;;;;;;;;5153201;27;20550;-73
2022/09/13 11:15:06;;;;;;;10.25;1.80;;;;;;;;;;5147518;27;20173;-76
2022/09/13 11:17:39;;;;;;;8.32;1.70;;;;;;;;;;5143393;27;20558;-75
2022/09/13 11:20:17;;;;;;;12.13;1.95;;;;;;;;;;5143510;27;20100;-73
2022/09/13 11:22:52;;;;;;;10.25;2.33;;;;;;;;;;5151127;27;20038;-78
2022/09/13 11:25:23;;;;;;;9.43;1.90;;;;;;;;;;5150792;27;20157;-73
2022/09/13 11:28:03;;;;;;;21.75;2.42;;;;;;;;;;5141124;27;20133;-74
2022/09/13 11:30:33;;;;;;;12.18;1.95;;;;;;;;;;5150307;27;20054;-71
2022/09/13 11:32:59;;;;;;;11.23;2.20;;;;;;;;;;5146164;27;20096;-75
2022/09/13 11:35:35;;;;;;;10.13;2.53;;;;;;;;;;5131768;27;20122;-79
2022/09/13 11:38:23;;;;;;;11.43;2.65;;;;;;;;;;5148532;27;20092;-74
2022/09/13 11:40:55;;;;;;;15.73;2.58;;;;;;;;;;5151182;27;20042;-78
2022/09/13 11:43:24;;;;;;;12.98;3.25;;;;;;;;;;5137785;27;20046;-80
2022/09/13 11:45:56;;;;;;;13.88;2.20;;;;;;;;;;5148889;27;20039;-70
2022/09/13 11:48:42;;;;;;;10.43;2.10;;;;;;;;;;5143405;27;20053;-85
2022/09/13 11:51:11;;;;;;;14.43;2.38;;;;;;;;;;5105736;27;20118;-73
2022/09/13 11:53:40;;;;;;;12.23;2.17;;;;;;;;;;5143061;27;20186;-81
2022/09/13 11:56:09;;;;;;;9.00;2.15;;;;;;;;;;5126329;27;20120;-76
2022/09/13 11:58:39;;;;;;;11.77;2.33;;;;;;;;;;5116300;27;20050;-73
2022/09/13 12:01:08;;;;;;;14.38;2.28;;;;;;;;;;5134637;27;20040;-72
2022/09/13 12:03:40;;;;;;;14.32;2.40;;;;;;;;;;5148445;27;20038;-69
2022/09/13 12:06:19;;;;;;;13.40;2.38;;;;;;;;;;5135708;27;20434;-73
2022/09/13 12:08:48;;;;;;;9.68;2.13;;;;;;;;;;5147196;27;20355;-77
2022/09/13 12:11:21;;;;;;;8.82;2.10;;;;;;;;;;5136562;27;20055;-71
2022/09/13 12:13:55;;;;;;;16.17;2.25;;;;;;;;;;5128295;27;20065;-72
2022/09/13 12:16:25;;;;;;;10.15;2.22;;;;;;;;;;5145688;27;20062;-71
2022/09/13 12:18:53;;;;;;;14.27;2.05;;;;;;;;;;5142911;27;20047;-78
2022/09/13 12:21:22;;;;;;;11.35;2.17;;;;;;;;;;5122312;27;20600;-75
2022/09/13 12:24:00;;;;;;;14.20;2.72;;;;;;;;;;5142118;27;20043;-69
2022/09/13 12:26:30;;;;;;;21.00;2.92;;;;;;;;;;5145897;27;20466;-75
2022/09/13 12:29:02;;;;;;;12.88;2.42;;;;;;;;;;5114215;27;20458;-81
2022/09/13 12:31:30;;;;;;;16.70;2.90;;;;;;;;;;5118558;27;20126;-70
2022/09/13 12:33:57;;;;;;;18.67;2.80;;;;;;;;;;5142462;27;20195;-72
2022/09/13 12:36:24;;;;;;;10.45;2.40;;;;;;;;;;5135828;27;20107;-71
2022/09/13 12:39:09;;;;;;;15.13;2.80;;;;;;;;;;5122413;27;20119;-69
2022/09/13 12:41:46;;;;;;;15.75;3.17;;;;;;;;;;5140295;27;20061;-71
2022/09/13 12:44:21;;;;;;;12.32;2.13;;;;;;;;;;5143331;27;20153;-82
2022/09/13 12:46:53;;;;;;;13.70;2.42;;;;;;;;;;5134428;27;20119;-72
2022/09/13 12:49:19;;;;;;;13.15;2.40;;;;;;;;;;5142180;27;20042;-74
2022/09/13 12:52:06;;;;;;;14.02;2.67;;;;;;;;;;5149716;27;20126;-76
2022/09/13 12:54:38;;;;;;;14.20;2.08;;;;;;;;;;5122986;27;20437;-71
2022/09/13 12:57:16;;;;;;;15.02;2.70;;;;;;;;;;5145608;27;20355;-70
2022/09/13 12:59:54;;;;;;;10.93;2.15;;;;;;;;;;5122549;27;20047;-74
2022/09/13 13:02:28;;;;;;;12.60;2.42;;;;;;;;;;5145872;27;20110;-74
2022/09/13 13:04:59;;;;;;;12.90;2.17;;;;;;;;;;5132493;27;20068;-70
2022/09/13 13:07:26;;;;;;;11.85;2.25;;;;;;;;;;5137629;27;20058;-70
2022/09/13 13:09:54;;;;;;;13.43;2.65;;;;;;;;;;5133037;27;20137;-70
2022/09/13 13:12:32;;;;;;;15.88;2.70;;;;;;;;;;5144270;27;20077;-72
2022/09/13 13:15:00;;;;;;;15.88;2.10;;;;;;;;;;5139478;27;20141;-76
2022/09/13 13:17:35;;;;;;;14.55;2.50;;;;;;;;;;5144081;27;20031;-71
2022/09/13 13:20:21;;;;;;;11.65;2.22;;;;;;;;;;5146205;27;20049;-71
2022/09/13 13:22:51;;;;;;;11.65;2.83;;;;;;;;;;5141002;27;20046;-70
2022/09/13 13:25:32;;;;;;;12.48;2.40;;;;;;;;;;5140354;27;20054;-84
2022/09/13 13:27:58;;;;;;;11.60;2.78;;;;;;;;;;5143701;27;20058;-83
2022/09/13 13:30:24;;;;;;;;;;;;;;;;;;5144684;27;22183;-70
2022/09/13 13:33:08;;;;;;;11.52;2.20;;;;;;;;;;5145707;27;20083;-70
2022/09/13 13:35:35;;;;;;;12.25;2.25;;;;;;;;;;5143472;27;20123;-72
2022/09/13 13:38:00;;;;;;;;;;;;;;;;;;5144912;27;20079;-73
2022/09/13 13:40:28;;;;;;;13.65;2.63;;;;;;;;;;5143163;27;19919;-71
2022/09/13 13:43:14;;;;;;;11.27;2.50;;;;;;;;;;5139140;27;20064;-74
2022/09/13 13:45:55;;;;;;;14.30;2.70;;;;;;;;;;5136298;27;20184;-71
2022/09/13 13:48:36;;;;;;;11.50;1.92;;;;;;;;;;5115541;27;20129;-74
2022/09/13 13:51:11;;;;;;;10.27;2.38;;;;;;;;;;5146807;27;20151;-70
2022/09/13 13:53:39;;;;;;;12.75;2.10;;;;;;;;;;5141941;27;20119;-77
2022/09/13 13:56:17;;;;;;;11.88;2.33;;;;;;;;;;5138969;27;20043;-76
2022/09/13 13:58:45;;;;;;;14.07;2.75;;;;;;;;;;5130047;27;20065;-77
2022/09/13 14:01:32;;;;;;;11.20;2.10;;;;;;;;;;5120749;27;20039;-70
2022/09/13 14:04:07;;;;;;;11.68;2.35;;;;;;;;;;5149167;27;20099;-77
2022/09/13 14:06:36;;;;;;;13.95;2.25;;;;;;;;;;5148205;27;20417;-83
2022/09/13 14:09:21;;;;;;;11.38;2.20;;;;;;;;;;5143577;27;20054;-76
2022/09/13 14:12:16;;;;;;;12.15;2.20;;;;;;;;;;5134427;27;20460;-68
2022/09/13 14:14:52;;;;;;;12.30;2.65;;;;;;;;;;5125045;27;20246;-68
2022/09/13 14:17:24;;;;;;;14.07;2.30;;;;;;;;;;5133842;27;20518;-85
2022/09/13 14:19:53;;;;;;;13.30;2.28;;;;;;;;;;5145745;27;20130;-84
2022/09/13 14:22:23;;;;;;;15.45;2.50;;;;;;;;;;5141990;27;20138;-69
2022/09/13 14:24:51;;;;;;;10.43;2.10;;;;;;;;;;5148958;27;20111;-68
2022/09/13 14:27:22;;;;;;;12.55;2.00;;;;;;;;;;5120493;27;20058;-69
2022/09/13 14:30:03;;;;;;;10.75;1.80;;;;;;;;;;5112865;27;20046;-67
2022/09/13 14:32:40;;;;;;;12.57;1.90;;;;;;;;;;5106849;28;20040;-74
2022/09/13 14:35:21;;;;;;;11.93;2.38;;;;;;;;;;5105398;28;20047;-72
2022/09/13 14:37:47;;;;;;;11.80;2.20;;;;;;;;;;5088525;28;20044;-71
2022/09/13 14:40:16;;;;;;;12.60;1.90;;;;;;;;;;5092948;28;20055;-70
2022/09/13 14:42:44;;;;;;;13.20;2.40;;;;;;;;;;5105477;28;20044;-76
2022/09/13 14:45:14;;;;;;;12.77;1.98;;;;;;;;;;5107770;28;20052;-72
2022/09/13 14:47:44;;;;;;;11.43;2.00;;;;;;;;;;5106012;28;20063;-71
2022/09/13 14:50:15;;;;;;;8.80;1.90;;;;;;;;;;5104218;28;20050;-77
2022/09/13 14:53:00;;;;;;;13.77;2.35;;;;;;;;;;5088578;28;20060;-77
2022/09/13 14:55:32;;;;;;;9.50;1.95;;;;;;;;;;5105204;28;20427;-77